Time;durP1;ratioP1;P1;durP2;ratioP2;P2;SDS_P1;SDS_P2;PMS_P1;PMS_P2;Temp;Humidity;BMP_temperature;BMP_pressure;BME280_temperature;BME280_humidity;BME280_pressure;Samples;Min_cycle;Max_cycle;Signal;HPM_P1;HPM_P2
2022/06/16 00:02:03;;;;;;;7.57;3.23;;;18.40;74.80;;;;;;5011487;28;20561;-51
2022/06/16 00:04:30;;;;;;;3.70;3.10;;;18.40;74.90;;;;;;5011656;28;20436;-52
2022/06/16 00:06:56;;;;;;;5.93;2.97;;;18.40;75.40;;;;;;5011534;28;20793;-52
2022/06/16 00:09:23;;;;;;;8.03;4.23;;;18.20;75.90;;;;;;5011219;28;20486;-52
2022/06/16 00:11:50;;;;;;;7.50;4.20;;;18.00;75.70;;;;;;5011529;28;20823;-52
2022/06/16 00:14:18;;;;;;;9.50;3.83;;;17.90;76.10;;;;;;5011521;28;20497;-52
2022/06/16 00:16:46;;;;;;;5.90;3.37;;;18.00;76.40;;;;;;5011385;28;20495;-52
2022/06/16 00:19:13;;;;;;;7.60;3.80;;;18.00;76.60;;;;;;5011048;28;20470;-52
2022/06/16 00:21:40;;;;;;;7.33;3.97;;;18.00;76.50;;;;;;5011456;28;20434;-51
2022/06/16 00:24:08;;;;;;;6.10;5.00;;;17.80;77.00;;;;;;5011399;28;20484;-52
2022/06/16 00:26:34;;;;;;;5.50;3.50;;;18.10;77.80;;;;;;5011512;28;20431;-52
2022/06/16 00:29:01;;;;;;;10.63;4.10;;;17.80;77.30;;;;;;4993464;28;20442;-53
2022/06/16 00:31:27;;;;;;;4.63;3.07;;;17.90;78.00;;;;;;4993848;28;20800;-52
2022/06/16 00:33:55;;;;;;;4.53;3.50;;;17.70;77.90;;;;;;5011637;28;20489;-53
2022/06/16 00:36:24;;;;;;;7.13;3.93;;;17.50;78.00;;;;;;4993643;28;20466;-52
2022/06/16 00:38:51;;;;;;;5.60;3.63;;;17.60;78.20;;;;;;4993594;28;20522;-52
2022/06/16 00:41:18;;;;;;;5.00;3.70;;;17.70;79.00;;;;;;5029892;23;20528;-47
2022/06/16 00:43:45;;;;;;;3.70;3.00;;;17.90;79.60;;;;;;5030259;28;20466;-47
2022/06/16 00:46:15;;;;;;;5.10;3.53;;;17.50;79.70;;;;;;5029964;28;20914;-47
2022/06/16 00:48:45;;;;;;;6.47;3.70;;;17.40;80.20;;;;;;5030060;28;20941;-47
2022/06/16 00:51:18;;;;;;;4.40;3.10;;;17.40;80.80;;;;;;5029683;28;20463;-48
2022/06/16 00:53:45;;;;;;;6.47;3.60;;;17.30;81.10;;;;;;5030120;28;20451;-48
2022/06/16 00:56:16;;;;;;;4.87;3.50;;;17.20;81.60;;;;;;5030070;28;20975;-48
2022/06/16 00:58:46;;;;;;;3.27;2.93;;;16.90;81.30;;;;;;5029737;28;20450;-48
2022/06/16 01:01:14;;;;;;;5.73;4.03;;;17.60;82.40;;;;;;5012222;28;20580;-48
2022/06/16 01:06:28;;;;;;;6.40;4.50;;;16.80;82.00;;;;;;5029899;28;20428;-48
2022/06/16 01:08:58;;;;;;;5.90;3.40;;;17.10;82.90;;;;;;5029806;28;20435;-47
2022/06/16 01:14:32;;;;;;;5.00;4.00;;;17.20;84.00;;;;;;5033794;28;20944;-48
2022/06/16 01:17:07;;;;;;;7.40;4.70;;;16.80;83.80;;;;;;5033689;28;20479;-48
2022/06/16 01:20:07;;;;;;;6.03;3.73;;;17.00;84.10;;;;;;5033316;28;20818;-48
2022/06/16 01:22:54;;;;;;;5.57;3.93;;;17.00;84.60;;;;;;5018378;28;20574;-48
2022/06/16 01:25:30;;;;;;;5.73;4.00;;;16.60;84.50;;;;;;5015467;28;21043;-48
2022/06/16 01:28:16;;;;;;;3.57;3.27;;;16.90;85.40;;;;;;5015476;28;20444;-48
2022/06/16 01:30:52;;;;;;;6.97;4.60;;;16.80;86.30;;;;;;5014812;28;20460;-48
2022/06/16 01:33:25;;;;;;;4.47;3.90;;;16.60;86.70;;;;;;5015238;28;20463;-47
2022/06/16 01:35:56;;;;;;;5.97;4.20;;;16.60;87.50;;;;;;5015328;28;20519;-48
2022/06/16 01:38:31;;;;;;;4.87;4.07;;;16.60;87.90;;;;;;5015007;28;20475;-47
2022/06/16 01:41:08;;;;;;;5.23;4.47;;;16.50;88.60;;;;;;5015249;28;20507;-47
2022/06/16 01:43:39;;;;;;;5.00;3.60;;;16.60;89.60;;;;;;5033412;28;20442;-48
2022/06/16 01:46:14;;;;;;;5.90;3.67;;;16.40;89.90;;;;;;5015425;28;20447;-48
2022/06/16 01:48:44;;;;;;;11.63;5.17;;;16.40;90.20;;;;;;5014890;28;20456;-47
2022/06/16 01:51:16;;;;;;;8.30;4.33;;;16.40;90.30;;;;;;5033373;28;20569;-48
2022/06/16 01:53:46;;;;;;;6.10;4.90;;;16.40;90.30;;;;;;5033008;28;20435;-47
2022/06/16 01:56:18;;;;;;;7.13;4.20;;;16.30;90.80;;;;;;5032748;28;20446;-47
2022/06/16 01:58:51;;;;;;;7.13;4.20;;;16.30;91.20;;;;;;5014622;28;20459;-47
2022/06/16 02:01:22;;;;;;;3.93;3.50;;;16.30;91.30;;;;;;5014794;28;20569;-47
2022/06/16 02:03:54;;;;;;;5.77;4.43;;;16.30;91.40;;;;;;5014737;28;20494;-48
2022/06/16 02:06:25;;;;;;;5.57;4.73;;;16.30;91.50;;;;;;5014729;28;20444;-48
2022/06/16 02:08:57;;;;;;;5.20;4.07;;;16.30;91.60;;;;;;5014026;28;20459;-48
2022/06/16 02:11:28;;;;;;;5.40;4.30;;;16.30;91.90;;;;;;5014690;28;20485;-47
2022/06/16 02:13:59;;;;;;;8.10;4.27;;;16.60;92.20;;;;;;5014716;28;21003;-48
2022/06/16 02:16:34;;;;;;;5.70;4.70;;;16.50;92.20;;;;;;5014634;28;20471;-48
2022/06/16 02:19:02;;;;;;;8.93;4.40;;;16.30;92.30;;;;;;5014099;28;20451;-48
2022/06/16 02:21:34;;;;;;;9.33;4.73;;;16.20;92.50;;;;;;5032318;28;20454;-48
2022/06/16 02:24:02;;;;;;;6.30;4.50;;;16.10;92.90;;;;;;5013161;28;20470;-48
2022/06/16 02:26:29;;;;;;;6.17;4.67;;;16.00;93.00;;;;;;5014080;28;20777;-48
2022/06/16 02:28:58;;;;;;;6.43;4.43;;;16.00;93.20;;;;;;5031779;28;20924;-47
2022/06/16 02:31:39;;;;;;;5.73;4.30;;;15.60;93.40;;;;;;5014486;28;20471;-47
2022/06/16 02:34:14;;;;;;;7.20;4.23;;;16.10;93.80;;;;;;5014121;28;20454;-48
2022/06/16 02:36:56;;;;;;;12.73;4.63;;;15.90;94.00;;;;;;5031867;28;20475;-47
2022/06/16 02:39:37;;;;;;;5.30;4.60;;;15.90;94.30;;;;;;5013396;28;20447;-47
2022/06/16 02:42:16;;;;;;;5.17;4.57;;;15.90;94.40;;;;;;5031889;28;20447;-47
2022/06/16 02:44:50;;;;;;;8.13;4.50;;;15.70;94.40;;;;;;5013950;28;20479;-47
2022/06/16 02:50:12;;;;;;;6.97;4.70;;;15.90;94.60;;;;;;5030708;28;20628;-47
2022/06/16 02:52:44;;;;;;;8.70;4.60;;;15.80;94.70;;;;;;5031619;28;20431;-48
2022/06/16 02:55:15;;;;;;;8.23;5.03;;;15.90;94.90;;;;;;5013886;28;20548;-48
2022/06/16 02:57:47;;;;;;;6.90;4.60;;;15.70;94.90;;;;;;5013662;28;20479;-47
2022/06/16 03:00:22;;;;;;;6.27;4.97;;;15.80;95.00;;;;;;5013260;28;20550;-48
2022/06/16 03:02:50;;;;;;;5.77;5.00;;;15.80;95.10;;;;;;5013590;28;20786;-49
2022/06/16 03:05:17;;;;;;;10.77;4.10;;;15.90;95.30;;;;;;5013421;28;20450;-49
2022/06/16 03:07:45;;;;;;;6.40;4.57;;;15.70;95.40;;;;;;5013488;28;20444;-48
2022/06/16 03:13:16;;;;;;;5.80;4.23;;;16.10;95.80;;;;;;5031502;28;20441;-48
2022/06/16 03:15:43;;;;;;;6.00;4.90;;;16.20;95.80;;;;;;5013359;28;20761;-48
2022/06/16 03:18:11;;;;;;;9.10;5.20;;;15.70;95.50;;;;;;5013144;28;20482;-48
2022/06/16 03:20:37;;;;;;;7.80;4.63;;;15.80;95.80;;;;;;5013095;28;20502;-48
2022/06/16 03:23:04;;;;;;;6.17;4.13;;;15.60;95.70;;;;;;5013363;28;20440;-48
2022/06/16 03:25:31;;;;;;;6.07;4.60;;;15.90;95.90;;;;;;5013355;28;20451;-48
2022/06/16 03:27:58;;;;;;;5.80;4.53;;;15.70;96.00;;;;;;5013711;28;20798;-48
2022/06/16 03:30:27;;;;;;;7.03;4.10;;;15.60;96.00;;;;;;5030742;28;20471;-48
2022/06/16 03:32:54;;;;;;;8.93;4.83;;;15.80;96.00;;;;;;5013524;28;20959;-48
2022/06/16 03:35:24;;;;;;;5.53;4.60;;;15.90;96.00;;;;;;5013084;28;20950;-48
2022/06/16 03:37:54;;;;;;;5.40;4.53;;;15.70;95.80;;;;;;5013112;28;20479;-47
2022/06/16 03:40:22;;;;;;;5.10;4.60;;;15.40;95.70;;;;;;5012625;28;20536;-47
2022/06/16 03:42:52;;;;;;;8.77;4.60;;;15.90;96.00;;;;;;5013234;28;20459;-48
2022/06/16 03:45:21;;;;;;;6.03;4.40;;;15.90;96.10;;;;;;5013470;28;20444;-47
2022/06/16 03:47:49;;;;;;;6.10;4.90;;;16.00;96.20;;;;;;5013349;28;20522;-47
2022/06/16 03:50:18;;;;;;;5.43;4.57;;;15.70;96.10;;;;;;5012667;28;20471;-47
2022/06/16 03:52:47;;;;;;;6.07;4.33;;;16.10;96.30;;;;;;5013250;28;20498;-48
2022/06/16 03:55:14;;;;;;;7.27;5.07;;;15.80;96.30;;;;;;5013129;28;20479;-48
2022/06/16 03:57:43;;;;;;;7.43;5.07;;;15.90;96.30;;;;;;5013214;28;20729;-48
2022/06/16 04:00:16;;;;;;;6.63;4.53;;;15.90;96.40;;;;;;5012903;28;20529;-48
2022/06/16 04:02:45;;;;;;;8.03;4.30;;;16.20;96.50;;;;;;5030707;28;20460;-48
2022/06/16 04:05:15;;;;;;;6.60;4.30;;;16.10;96.40;;;;;;5012409;28;20524;-49
2022/06/16 04:07:49;;;;;;;9.67;4.80;;;16.20;96.20;;;;;;5012369;28;20447;-48
2022/06/16 04:10:23;;;;;;;6.67;5.20;;;16.00;95.80;;;;;;5012062;28;20510;-48
2022/06/16 04:12:50;;;;;;;7.97;5.17;;;16.60;95.70;;;;;;5030682;28;20966;-49
2022/06/16 04:15:24;;;;;;;5.70;4.80;;;16.60;95.30;;;;;;5012201;28;20805;-47
2022/06/16 04:17:51;;;;;;;7.93;5.33;;;16.90;95.20;;;;;;5012229;28;20591;-47
2022/06/16 04:20:21;;;;;;;5.70;4.67;;;17.00;94.90;;;;;;5011523;28;20467;-47
2022/06/16 04:23:02;;;;;;;6.20;4.80;;;17.00;94.70;;;;;;5012294;28;20538;-49
2022/06/16 04:25:32;;;;;;;5.73;4.23;;;16.90;94.70;;;;;;5012249;28;20594;-48
2022/06/16 04:28:08;;;;;;;6.97;4.87;;;16.80;94.70;;;;;;5012637;28;20451;-48
2022/06/16 04:30:38;;;;;;;7.13;4.43;;;16.70;94.70;;;;;;5012050;28;20526;-47
2022/06/16 04:33:05;;;;;;;5.93;5.33;;;16.40;94.70;;;;;;5012507;28;20849;-48
2022/06/16 04:35:33;;;;;;;10.27;4.83;;;16.60;95.00;;;;;;5012284;28;20522;-48
2022/06/16 04:38:04;;;;;;;6.47;4.57;;;16.60;95.00;;;;;;5012692;28;20479;-48
2022/06/16 04:40:33;;;;;;;5.93;4.20;;;16.60;95.10;;;;;;5011732;28;20908;-48
2022/06/16 04:43:15;;;;;;;4.53;4.10;;;17.00;95.30;;;;;;5012346;28;20463;-47
2022/06/16 04:45:42;;;;;;;4.50;4.00;;;17.00;95.00;;;;;;5012623;28;20505;-48
2022/06/16 04:48:11;;;;;;;4.30;3.90;;;17.10;94.50;;;;;;5016102;28;20572;-48
2022/06/16 04:50:41;;;;;;;6.23;5.07;;;17.10;94.10;;;;;;5015501;28;20459;-47
2022/06/16 04:53:13;;;;;;;5.90;4.00;;;17.40;93.80;;;;;;5016087;28;20483;-49
2022/06/16 04:56:00;;;;;;;6.47;4.17;;;17.40;93.60;;;;;;5015976;28;20505;-48
2022/06/16 04:58:40;;;;;;;6.03;4.40;;;17.40;93.50;;;;;;5015546;28;21083;-50
2022/06/16 05:01:18;;;;;;;5.67;4.10;;;17.50;93.50;;;;;;5015950;28;20521;-48
2022/06/16 05:03:51;;;;;;;5.67;4.43;;;17.40;93.30;;;;;;5016028;28;20563;-49
2022/06/16 05:06:24;;;;;;;6.87;4.60;;;17.70;93.30;;;;;;5016376;28;20488;-49
2022/06/16 05:09:08;;;;;;;7.43;3.57;;;17.50;92.90;;;;;;5015630;28;20547;-49
2022/06/16 05:11:45;;;;;;;7.50;4.20;;;17.40;92.50;;;;;;5034093;28;20425;-48
2022/06/16 05:14:20;;;;;;;6.73;4.07;;;18.00;92.60;;;;;;5015739;28;20466;-49
2022/06/16 05:16:58;;;;;;;4.60;3.80;;;18.10;92.20;;;;;;5016088;28;20443;-49
2022/06/16 05:19:54;;;;;;;8.40;4.60;;;18.10;92.00;;;;;;5015994;28;20453;-49
2022/06/16 05:22:40;;;;;;;5.93;3.73;;;18.50;92.00;;;;;;5033217;28;20428;-47
2022/06/16 05:25:26;;;;;;;4.80;3.60;;;18.20;91.60;;;;;;5033782;28;20430;-49
2022/06/16 05:28:20;;;;;;;9.40;4.10;;;18.10;91.40;;;;;;5015157;28;20878;-48
2022/06/16 05:31:07;;;;;;;4.27;3.70;;;18.60;91.40;;;;;;5015138;28;20487;-49
2022/06/16 05:34:11;;;;;;;4.97;3.47;;;18.30;91.10;;;;;;5010239;28;20448;-49
2022/06/16 05:36:48;;;;;;;7.47;3.93;;;18.50;91.10;;;;;;5015377;28;20460;-48
2022/06/16 05:39:44;;;;;;;6.37;3.80;;;18.00;90.80;;;;;;4978501;28;20477;-48
2022/06/16 05:42:29;;;;;;;6.10;4.10;;;19.00;91.00;;;;;;5014842;28;20511;-49
2022/06/16 05:45:07;;;;;;;6.60;5.10;;;19.00;90.70;;;;;;5015096;28;20446;-49
2022/06/16 05:47:48;;;;;;;6.57;3.93;;;19.00;90.30;;;;;;5015429;28;20505;-48
2022/06/16 05:50:16;;;;;;;6.87;3.93;;;19.30;90.20;;;;;;5032832;28;20510;-49
2022/06/16 05:52:43;;;;;;;5.30;3.90;;;19.50;90.10;;;;;;5015227;28;20549;-47
2022/06/16 05:55:21;;;;;;;8.90;4.50;;;19.70;89.90;;;;;;5015234;28;20940;-48
2022/06/16 05:57:49;;;;;;;6.67;4.40;;;19.00;88.80;;;;;;5014543;28;20828;-47
2022/06/16 06:00:17;;;;;;;7.30;4.70;;;19.30;88.90;;;;;;5014439;28;20462;-48
2022/06/16 06:02:57;;;;;;;8.73;4.40;;;19.20;88.80;;;;;;5033036;28;20430;-47
2022/06/16 06:05:27;;;;;;;6.90;3.60;;;19.30;88.70;;;;;;5015200;28;20451;-47
2022/06/16 06:16:26;;;;;;;6.20;3.60;;;19.70;87.90;;;;;;5014621;28;21024;-48
2022/06/16 06:18:53;;;;;;;5.57;3.47;;;19.90;87.60;;;;;;5014166;28;20483;-47
2022/06/16 06:24:03;;;;;;;9.40;4.10;;;20.40;86.60;;;;;;5031532;28;20504;-48
2022/06/16 06:26:29;;;;;;;5.27;4.00;;;20.60;86.00;;;;;;5014641;28;20503;-47
2022/06/16 06:28:57;;;;;;;6.33;3.60;;;20.80;85.10;;;;;;5014224;28;20455;-47
2022/06/16 06:31:26;;;;;;;4.20;3.30;;;20.70;83.90;;;;;;5014157;28;20840;-48
2022/06/16 06:33:54;;;;;;;5.00;2.70;;;20.90;83.90;;;;;;5014377;28;20494;-46
2022/06/16 06:36:21;;;;;;;7.70;3.80;;;21.00;83.90;;;;;;5014408;28;20933;-48
2022/06/16 06:38:48;;;;;;;8.77;4.10;;;21.00;83.40;;;;;;5013872;28;20490;-48
2022/06/16 06:41:14;;;;;;;3.40;3.10;;;21.10;83.30;;;;;;5054886;23;20500;-54
2022/06/16 06:43:43;;;;;;;9.57;3.23;;;21.10;83.20;;;;;;5030723;28;20458;-53
2022/06/16 06:46:12;;;;;;;6.03;3.07;;;21.10;82.90;;;;;;5031709;28;20506;-51
2022/06/16 06:48:38;;;;;;;8.97;2.83;;;21.20;82.80;;;;;;5031693;28;20437;-54
2022/06/16 06:51:05;;;;;;;6.47;2.70;;;21.00;82.40;;;;;;5031234;28;20483;-54
2022/06/16 06:53:32;;;;;;;7.57;3.70;;;21.10;82.40;;;;;;5032590;28;20453;-53
2022/06/16 06:55:58;;;;;;;5.23;3.10;;;20.80;81.90;;;;;;5031937;28;20448;-53
2022/06/16 06:58:25;;;;;;;6.57;3.57;;;21.00;81.80;;;;;;5032076;28;20482;-53
2022/06/16 07:00:53;;;;;;;5.37;2.60;;;21.30;81.50;;;;;;5032010;28;20459;-54
2022/06/16 07:03:22;;;;;;;4.73;2.70;;;21.20;81.30;;;;;;5032515;28;20840;-53
2022/06/16 07:05:49;;;;;;;6.63;3.30;;;21.40;81.20;;;;;;5031944;28;20438;-53
2022/06/16 07:08:15;;;;;;;7.23;3.20;;;21.00;80.70;;;;;;5031303;28;20866;-53
2022/06/16 07:10:42;;;;;;;9.70;3.33;;;21.20;80.70;;;;;;5029737;28;20473;-53
2022/06/16 07:13:09;;;;;;;4.40;2.60;;;21.40;80.70;;;;;;5030648;28;20446;-53
2022/06/16 07:15:37;;;;;;;8.27;3.67;;;21.50;80.40;;;;;;5031733;28;20438;-52
2022/06/16 07:18:06;;;;;;;3.00;2.50;;;21.70;80.30;;;;;;5047349;28;20585;-53
2022/06/16 07:20:34;;;;;;;8.10;3.00;;;21.80;79.80;;;;;;5031461;28;20489;-53
2022/06/16 07:23:01;;;;;;;4.10;2.20;;;21.70;79.50;;;;;;5031689;28;20430;-52
2022/06/16 07:25:27;;;;;;;6.50;2.93;;;22.00;79.00;;;;;;5031304;28;20842;-52
2022/06/16 07:27:56;;;;;;;7.57;2.90;;;21.70;78.50;;;;;;5031031;28;20507;-52
2022/06/16 07:30:23;;;;;;;3.87;2.33;;;21.60;78.30;;;;;;5031213;28;20472;-52
2022/06/16 07:32:51;;;;;;;4.10;3.10;;;21.80;78.30;;;;;;5031416;28;20823;-52
2022/06/16 07:35:20;;;;;;;3.83;2.17;;;21.90;78.10;;;;;;5031193;28;20799;-53
2022/06/16 07:37:49;;;;;;;5.80;2.80;;;21.90;78.00;;;;;;5030871;28;20464;-53
2022/06/16 07:40:17;;;;;;;6.40;2.83;;;21.90;78.00;;;;;;5030727;28;20482;-53
2022/06/16 07:42:45;;;;;;;4.70;2.53;;;22.20;77.80;;;;;;5031412;28;20443;-53
2022/06/16 07:45:13;;;;;;;3.20;2.30;;;21.80;77.10;;;;;;5030408;28;20442;-53
2022/06/16 07:47:40;;;;;;;5.97;2.73;;;22.00;77.50;;;;;;5045841;28;20868;-53
2022/06/16 07:50:09;;;;;;;5.73;3.40;;;22.10;77.10;;;;;;5045851;28;20462;-52
2022/06/16 07:52:35;;;;;;;5.00;2.83;;;22.10;77.30;;;;;;5031604;28;20821;-53
2022/06/16 07:55:04;;;;;;;5.60;2.53;;;22.00;77.10;;;;;;5031192;28;20437;-53
2022/06/16 07:57:34;;;;;;;3.40;2.50;;;22.00;77.10;;;;;;5031582;28;20458;-53
2022/06/16 08:00:01;;;;;;;5.20;3.47;;;21.90;76.90;;;;;;5030392;28;20487;-52
2022/06/16 08:02:28;;;;;;;9.70;3.50;;;21.80;77.20;;;;;;5031251;28;20434;-53
2022/06/16 08:04:55;;;;;;;4.90;2.40;;;21.90;77.20;;;;;;5029799;28;20465;-53
2022/06/16 08:07:22;;;;;;;5.33;2.90;;;21.90;77.10;;;;;;5025205;28;20470;-53
2022/06/16 08:09:49;;;;;;;4.30;2.90;;;22.00;77.20;;;;;;5030493;28;20450;-53
2022/06/16 08:12:19;;;;;;;4.70;2.80;;;22.00;76.60;;;;;;5031581;28;20474;-52
2022/06/16 08:14:48;;;;;;;7.37;2.93;;;21.80;76.30;;;;;;5031321;28;20454;-53
2022/06/16 08:17:18;;;;;;;4.37;2.30;;;21.70;76.20;;;;;;5031569;28;20438;-52
2022/06/16 08:19:45;;;;;;;7.67;2.67;;;21.90;76.20;;;;;;5031139;28;20487;-52
2022/06/16 08:22:12;;;;;;;3.97;3.10;;;21.90;76.30;;;;;;5034982;28;20446;-52
2022/06/16 08:24:39;;;;;;;5.10;2.50;;;21.90;75.70;;;;;;5035156;28;20583;-52
2022/06/16 08:27:06;;;;;;;3.77;2.30;;;21.90;75.70;;;;;;5035280;28;20533;-52
2022/06/16 08:29:37;;;;;;;3.90;2.20;;;21.90;75.80;;;;;;5034241;28;20908;-52
2022/06/16 08:32:04;;;;;;;6.65;2.65;;;21.90;75.50;;;;;;5033875;28;20429;-52
2022/06/16 08:34:31;;;;;;;4.90;2.50;;;22.60;75.30;;;;;;5035243;28;20480;-52
2022/06/16 08:36:57;;;;;;;5.00;3.07;;;22.20;75.10;;;;;;5033845;28;20561;-52
2022/06/16 08:39:24;;;;;;;4.50;2.03;;;22.30;74.80;;;;;;5032365;28;20479;-52
2022/06/16 08:41:55;;;;;;;5.93;2.87;;;22.40;74.60;;;;;;5036842;28;20482;-51
2022/06/16 08:44:29;;;;;;;4.07;2.70;;;22.40;74.70;;;;;;5033167;28;20463;-51
2022/06/16 08:47:03;;;;;;;4.33;2.70;;;22.50;74.50;;;;;;5034836;28;20441;-51
2022/06/16 08:49:39;;;;;;;4.30;2.00;;;22.50;73.10;;;;;;5034113;28;20440;-52
2022/06/16 08:52:16;;;;;;;7.10;2.60;;;22.50;73.10;;;;;;5033809;28;20860;-52
2022/06/16 08:54:52;;;;;;;3.33;2.70;;;22.60;72.10;;;;;;5034912;28;20883;-52
2022/06/16 08:57:26;;;;;;;9.97;2.70;;;22.50;72.10;;;;;;5034290;28;20826;-53
2022/06/16 08:59:57;;;;;;;3.73;2.10;;;22.60;72.00;;;;;;5034576;28;20488;-53
2022/06/16 09:02:33;;;;;;;4.27;2.60;;;22.60;71.60;;;;;;5034691;28;20428;-52
2022/06/16 09:05:05;;;;;;;4.50;2.77;;;22.60;71.30;;;;;;5033753;28;20462;-51
2022/06/16 09:07:45;;;;;;;3.10;2.77;;;22.70;71.80;;;;;;5033810;28;20520;-52
2022/06/16 09:10:23;;;;;;;3.57;2.77;;;22.80;71.60;;;;;;5034340;28;20990;-54
2022/06/16 09:13:20;;;;;;;5.80;2.40;;;22.80;70.60;;;;;;5033712;28;20436;-52
2022/06/16 09:15:56;;;;;;;3.50;2.00;;;23.20;70.70;;;;;;5003832;28;20466;-53
2022/06/16 09:18:38;;;;;;;4.07;2.77;;;23.40;70.70;;;;;;5034075;28;20464;-52
2022/06/16 09:21:13;;;;;;;4.60;3.00;;;23.50;70.60;;;;;;5034444;28;20458;-51
2022/06/16 09:23:59;;;;;;;5.80;2.57;;;23.70;70.30;;;;;;5033711;28;20438;-53
2022/06/16 09:26:32;;;;;;;3.20;2.47;;;23.90;68.90;;;;;;5033987;28;20448;-54
2022/06/16 09:29:10;;;;;;;4.33;2.17;;;23.90;68.60;;;;;;5033309;28;20525;-53
2022/06/16 09:31:41;;;;;;;3.00;2.20;;;24.10;66.80;;;;;;5031847;28;20451;-53
2022/06/16 09:34:14;;;;;;;3.10;2.50;;;24.00;66.90;;;;;;5033906;28;20945;-52
2022/06/16 09:36:45;;;;;;;4.37;2.77;;;24.10;67.00;;;;;;5033521;28;20828;-53
2022/06/16 09:39:19;;;;;;;4.80;2.13;;;24.10;66.10;;;;;;5032813;28;20493;-52
2022/06/16 09:44:42;;;;;;;5.40;2.47;;;24.10;66.00;;;;;;5032540;28;20432;-53
2022/06/16 09:47:13;;;;;;;5.57;2.73;;;24.40;65.30;;;;;;5033806;28;20452;-53
2022/06/16 09:49:46;;;;;;;3.80;2.20;;;24.40;65.20;;;;;;5032763;28;20484;-52
2022/06/16 09:52:18;;;;;;;6.20;2.60;;;24.30;65.40;;;;;;5031992;28;20467;-53
2022/06/16 09:54:50;;;;;;;10.03;3.50;;;24.30;65.20;;;;;;5028464;28;20459;-53
2022/06/16 09:57:20;;;;;;;2.80;2.17;;;24.30;65.20;;;;;;5013795;28;20439;-53
2022/06/16 09:59:54;;;;;;;3.83;2.50;;;24.30;65.20;;;;;;5013164;28;20498;-53
2022/06/16 10:02:24;;;;;;;4.83;3.20;;;24.30;65.00;;;;;;5013138;28;20432;-53
2022/06/16 10:04:52;;;;;;;4.23;2.67;;;24.20;64.90;;;;;;5012775;28;20455;-53
2022/06/16 10:07:27;;;;;;;4.00;2.53;;;24.30;65.00;;;;;;5012279;28;20431;-53
2022/06/16 10:10:01;;;;;;;5.60;2.70;;;24.20;63.90;;;;;;5013418;28;20436;-51
2022/06/16 10:12:34;;;;;;;5.30;2.43;;;24.30;63.40;;;;;;5012647;28;20971;-52
2022/06/16 10:15:14;;;;;;;5.00;2.40;;;24.30;63.20;;;;;;5027840;28;20467;-52
2022/06/16 10:17:43;;;;;;;3.73;2.93;;;24.40;63.10;;;;;;5013008;28;20443;-52
2022/06/16 10:20:14;;;;;;;7.77;2.97;;;24.60;63.00;;;;;;5011898;28;20491;-52
2022/06/16 10:22:46;;;;;;;7.00;2.73;;;24.70;62.60;;;;;;5012759;28;20480;-52
2022/06/16 10:25:18;;;;;;;7.20;3.63;;;24.70;62.20;;;;;;5012848;28;20811;-52
2022/06/16 10:27:48;;;;;;;4.07;2.60;;;24.90;62.10;;;;;;5012733;28;20436;-52
2022/06/16 10:30:24;;;;;;;5.63;2.53;;;25.20;62.00;;;;;;5009374;28;20446;-52
2022/06/16 10:33:00;;;;;;;4.97;2.30;;;25.70;58.80;;;;;;5022206;28;20216;-52
2022/06/16 10:35:29;;;;;;;5.97;2.40;;;25.50;58.80;;;;;;5032402;28;20846;-52
2022/06/16 10:37:56;;;;;;;4.17;2.40;;;25.50;60.10;;;;;;5032080;28;20427;-51
2022/06/16 10:40:27;;;;;;;3.77;2.40;;;25.40;59.70;;;;;;5031640;28;20487;-51
2022/06/16 10:42:59;;;;;;;3.53;2.50;;;25.40;59.60;;;;;;5030490;28;20896;-51
2022/06/16 10:45:28;;;;;;;4.60;2.70;;;25.40;59.70;;;;;;5025657;28;20451;-51
2022/06/16 10:48:00;;;;;;;6.13;2.90;;;25.40;59.60;;;;;;5032245;28;20432;-52
2022/06/16 10:50:35;;;;;;;10.30;2.30;;;25.30;59.00;;;;;;5031835;28;20494;-51
2022/06/16 10:53:05;;;;;;;6.10;2.70;;;25.20;58.90;;;;;;5032058;28;20439;-52
2022/06/16 10:55:37;;;;;;;3.80;2.30;;;25.10;58.90;;;;;;5032157;28;20514;-52
2022/06/16 10:58:07;;;;;;;6.03;2.83;;;25.10;58.90;;;;;;5031886;28;20432;-51
2022/06/16 11:00:37;;;;;;;7.40;2.70;;;25.20;59.10;;;;;;5029484;28;20483;-51
2022/06/16 11:03:16;;;;;;;3.97;2.40;;;25.10;59.00;;;;;;5030905;28;20510;-51
2022/06/16 11:05:52;;;;;;;7.27;3.83;;;25.20;58.70;;;;;;5021088;28;20555;-51
2022/06/16 11:08:21;;;;;;;5.60;2.70;;;24.90;57.60;;;;;;5012197;28;20440;-51
2022/06/16 11:10:53;;;;;;;5.30;2.80;;;24.90;57.90;;;;;;5011475;28;20590;-52
2022/06/16 11:13:27;;;;;;;5.20;2.70;;;24.80;58.40;;;;;;5010866;28;20448;-51
2022/06/16 11:15:55;;;;;;;6.17;2.23;;;24.80;58.10;;;;;;5011978;28;20452;-52
2022/06/16 11:18:30;;;;;;;4.90;2.60;;;25.00;58.80;;;;;;5012108;28;20428;-51
2022/06/16 11:21:00;;;;;;;10.40;3.50;;;24.90;58.90;;;;;;5011465;28;20492;-51
2022/06/16 11:23:31;;;;;;;3.00;2.30;;;24.90;59.20;;;;;;5011972;28;20428;-52
2022/06/16 11:26:09;;;;;;;4.90;2.70;;;24.70;59.60;;;;;;5011885;28;20440;-51
2022/06/16 11:28:43;;;;;;;23.80;2.60;;;24.50;60.00;;;;;;5010614;28;20509;-51
2022/06/16 11:31:14;;;;;;;5.17;3.03;;;24.40;60.30;;;;;;5011009;28;21051;-51
2022/06/16 11:36:48;;;;;;;3.53;2.20;;;24.10;60.80;;;;;;5025809;28;20472;-52
2022/06/16 11:39:20;;;;;;;4.23;2.40;;;24.10;61.40;;;;;;5012032;28;20435;-52
2022/06/16 11:41:50;;;;;;;4.40;2.40;;;24.00;60.90;;;;;;5012169;28;20479;-54
2022/06/16 11:44:28;;;;;;;5.00;2.53;;;23.90;61.40;;;;;;5016106;28;20452;-52
2022/06/16 11:47:02;;;;;;;5.17;2.37;;;23.50;60.60;;;;;;5031459;28;20431;-53
2022/06/16 11:49:35;;;;;;;4.47;2.47;;;23.90;61.60;;;;;;5030630;28;20951;-51
2022/06/16 11:52:14;;;;;;;5.17;2.43;;;23.90;61.40;;;;;;5031359;28;20776;-51
2022/06/16 11:54:52;;;;;;;5.97;2.60;;;23.90;61.20;;;;;;5030912;28;20992;-52
2022/06/16 11:57:27;;;;;;;4.23;2.50;;;23.80;61.30;;;;;;5030591;28;20548;-51
2022/06/16 12:00:16;;;;;;;5.40;2.23;;;23.80;60.40;;;;;;5030610;28;20478;-51
2022/06/16 12:03:17;;;;;;;2.60;2.40;;;23.80;60.20;;;;;;5031283;28;21002;-52
2022/06/16 12:05:48;;;;;;;6.40;2.30;;;23.80;60.90;;;;;;5030813;28;20441;-52
2022/06/16 12:08:30;;;;;;;5.03;2.30;;;23.70;60.80;;;;;;5030938;28;20461;-51
2022/06/16 12:11:03;;;;;;;6.83;2.40;;;23.70;60.30;;;;;;5030706;28;20500;-51
2022/06/16 12:13:36;;;;;;;5.23;2.00;;;23.70;60.30;;;;;;5031167;28;20518;-51
2022/06/16 12:16:13;;;;;;;5.67;2.47;;;23.70;60.20;;;;;;5030657;28;20446;-51
2022/06/16 12:18:53;;;;;;;3.33;2.67;;;23.60;60.10;;;;;;5028772;28;20966;-51
2022/06/16 12:21:26;;;;;;;3.33;2.40;;;23.60;60.30;;;;;;5030535;28;20492;-50
2022/06/16 12:24:01;;;;;;;6.03;2.77;;;23.60;60.10;;;;;;5030319;28;20968;-51
2022/06/16 12:26:31;;;;;;;3.57;2.37;;;23.60;60.10;;;;;;5029063;28;20549;-53
2022/06/16 12:29:08;;;;;;;6.40;2.97;;;23.60;60.50;;;;;;5029114;28;20782;-51
2022/06/16 12:31:46;;;;;;;4.07;2.60;;;23.50;60.20;;;;;;5028798;28;20467;-52
2022/06/16 12:34:20;;;;;;;3.43;2.03;;;23.60;60.30;;;;;;5030735;28;21020;-51
2022/06/16 12:36:51;;;;;;;4.13;2.60;;;23.60;60.30;;;;;;5031012;28;20500;-50
2022/06/16 12:39:25;;;;;;;3.23;2.30;;;23.50;60.30;;;;;;5030550;28;20442;-51
2022/06/16 12:41:55;;;;;;;8.10;2.53;;;23.60;60.50;;;;;;5038446;23;21003;-45
2022/06/16 12:44:31;;;;;;;3.73;2.60;;;23.70;60.60;;;;;;5012642;28;20476;-46
2022/06/16 12:47:04;;;;;;;4.60;3.00;;;23.50;60.30;;;;;;5012350;28;20475;-44
2022/06/16 12:49:35;;;;;;;6.00;2.60;;;23.60;60.40;;;;;;4993976;28;20448;-45
2022/06/16 12:52:06;;;;;;;7.43;5.87;;;23.60;60.50;;;;;;5011731;28;20473;-45
2022/06/16 12:54:39;;;;;;;4.53;2.80;;;23.80;60.60;;;;;;5012446;28;20437;-45
2022/06/16 12:57:08;;;;;;;4.33;2.57;;;23.90;60.20;;;;;;5012133;28;20443;-45
2022/06/16 12:59:39;;;;;;;3.13;2.30;;;23.90;59.90;;;;;;5011532;28;20437;-44
2022/06/16 13:02:11;;;;;;;5.37;2.20;;;24.00;60.10;;;;;;5012034;28;20482;-44
2022/06/16 13:04:38;;;;;;;6.17;3.07;;;24.00;59.70;;;;;;5012681;28;20437;-45
2022/06/16 13:07:12;;;;;;;4.67;2.20;;;24.00;59.40;;;;;;5013397;28;20511;-46
2022/06/16 13:09:41;;;;;;;3.83;2.33;;;24.10;59.20;;;;;;5015410;28;20459;-45
2022/06/16 13:12:17;;;;;;;6.03;2.70;;;24.00;58.90;;;;;;5015721;28;20486;-45
2022/06/16 13:14:52;;;;;;;5.30;2.40;;;23.90;58.70;;;;;;5015500;28;20636;-45
2022/06/16 13:17:27;;;;;;;4.33;2.50;;;24.00;58.90;;;;;;5015784;28;20443;-45
2022/06/16 13:19:59;;;;;;;4.40;2.40;;;24.10;58.80;;;;;;5015447;28;20887;-45
2022/06/16 13:22:31;;;;;;;4.07;2.40;;;24.20;58.90;;;;;;5016071;28;20451;-45
2022/06/16 13:25:01;;;;;;;4.13;2.80;;;24.20;58.70;;;;;;5015996;28;20447;-43
2022/06/16 13:27:32;;;;;;;7.93;3.47;;;24.30;58.70;;;;;;5015594;28;20435;-44
2022/06/16 13:30:13;;;;;;;10.50;2.80;;;24.30;58.70;;;;;;5015300;28;20439;-46
2022/06/16 13:32:42;;;;;;;5.53;2.40;;;24.40;58.40;;;;;;5015624;28;20474;-45
2022/06/16 13:35:47;;;;;;;5.23;2.73;;;24.40;58.30;;;;;;5014883;28;20539;-46
2022/06/16 13:38:40;;;;;;;5.70;3.60;;;24.60;58.20;;;;;;5015559;28;20504;-46
2022/06/16 13:41:35;;;;;;;6.73;2.53;;;24.70;58.00;;;;;;5015351;28;20483;-45